sensor_id;sensor_type;location;lat;lon;timestamp;pressure;altitude;pressure_sealevel;temperature
16956;BMP180;8594;52.052;8.354;2023-11-21T00:01:07;100016.00;;;12.30
16956;BMP180;8594;52.052;8.354;2023-11-21T00:03:34;100022.00;;;12.40
16956;BMP180;8594;52.052;8.354;2023-11-21T00:06:01;100027.00;;;12.10
16956;BMP180;8594;52.052;8.354;2023-11-21T00:08:29;100024.00;;;12.30
16956;BMP180;8594;52.052;8.354;2023-11-21T00:10:56;100025.00;;;12.20
16956;BMP180;8594;52.052;8.354;2023-11-21T00:13:26;100019.00;;;12.20
16956;BMP180;8594;52.052;8.354;2023-11-21T00:15:53;100030.00;;;12.30
16956;BMP180;8594;52.052;8.354;2023-11-21T00:18:20;100026.00;;;12.10
16956;BMP180;8594;52.052;8.354;2023-11-21T00:20:47;100027.00;;;12.10
16956;BMP180;8594;52.052;8.354;2023-11-21T00:23:14;100037.00;;;12.20
16956;BMP180;8594;52.052;8.354;2023-11-21T00:25:42;100035.00;;;12.10
16956;BMP180;8594;52.052;8.354;2023-11-21T00:28:09;100041.00;;;12.10
16956;BMP180;8594;52.052;8.354;2023-11-21T00:30:36;100044.00;;;12.30
16956;BMP180;8594;52.052;8.354;2023-11-21T00:33:03;100044.00;;;12.40
16956;BMP180;8594;52.052;8.354;2023-11-21T00:35:30;100039.00;;;12.30
16956;BMP180;8594;52.052;8.354;2023-11-21T00:37:57;100037.00;;;12.70
16956;BMP180;8594;52.052;8.354;2023-11-21T00:40:24;100038.00;;;12.50
16956;BMP180;8594;52.052;8.354;2023-11-21T00:42:52;100037.00;;;12.50
16956;BMP180;8594;52.052;8.354;2023-11-21T00:45:19;100038.00;;;12.60
16956;BMP180;8594;52.052;8.354;2023-11-21T00:47:45;100040.00;;;12.50
16956;BMP180;8594;52.052;8.354;2023-11-21T00:50:12;100042.00;;;12.70
16956;BMP180;8594;52.052;8.354;2023-11-21T00:52:39;100041.00;;;12.50
16956;BMP180;8594;52.052;8.354;2023-11-21T00:55:07;100041.00;;;12.50
16956;BMP180;8594;52.052;8.354;2023-11-21T00:57:35;100034.00;;;12.50
16956;BMP180;8594;52.052;8.354;2023-11-21T01:00:05;100052.00;;;12.60
16956;BMP180;8594;52.052;8.354;2023-11-21T01:02:35;100045.00;;;12.60
16956;BMP180;8594;52.052;8.354;2023-11-21T01:05:02;100053.00;;;12.70
16956;BMP180;8594;52.052;8.354;2023-11-21T01:07:29;100056.00;;;12.60
16956;BMP180;8594;52.052;8.354;2023-11-21T01:09:56;100057.00;;;12.40
16956;BMP180;8594;52.052;8.354;2023-11-21T01:12:23;100060.00;;;12.50
16956;BMP180;8594;52.052;8.354;2023-11-21T01:14:50;100060.00;;;12.40
16956;BMP180;8594;52.052;8.354;2023-11-21T01:17:18;100059.00;;;12.50
16956;BMP180;8594;52.052;8.354;2023-11-21T01:19:48;100067.00;;;12.60
16956;BMP180;8594;52.052;8.354;2023-11-21T01:22:15;100067.00;;;12.50
16956;BMP180;8594;52.052;8.354;2023-11-21T01:24:43;100056.00;;;12.50
16956;BMP180;8594;52.052;8.354;2023-11-21T01:27:10;100062.00;;;12.40
16956;BMP180;8594;52.052;8.354;2023-11-21T01:29:36;100070.00;;;12.60
16956;BMP180;8594;52.052;8.354;2023-11-21T01:32:04;100063.00;;;12.60
16956;BMP180;8594;52.052;8.354;2023-11-21T01:34:34;100066.00;;;12.50
16956;BMP180;8594;52.052;8.354;2023-11-21T01:37:01;100074.00;;;12.60
16956;BMP180;8594;52.052;8.354;2023-11-21T01:39:30;100066.00;;;12.50
16956;BMP180;8594;52.052;8.354;2023-11-21T01:41:57;100058.00;;;13.00
16956;BMP180;8594;52.052;8.354;2023-11-21T01:44:24;100060.00;;;12.70
16956;BMP180;8594;52.052;8.354;2023-11-21T01:46:51;100059.00;;;13.10
16956;BMP180;8594;52.052;8.354;2023-11-21T01:49:19;100062.00;;;13.20
16956;BMP180;8594;52.052;8.354;2023-11-21T01:51:50;100066.00;;;13.10
16956;BMP180;8594;52.052;8.354;2023-11-21T01:54:18;100061.00;;;12.80
16956;BMP180;8594;52.052;8.354;2023-11-21T01:56:46;100065.00;;;12.60
16956;BMP180;8594;52.052;8.354;2023-11-21T01:59:18;100066.00;;;12.70
16956;BMP180;8594;52.052;8.354;2023-11-21T02:01:46;100067.00;;;12.70
16956;BMP180;8594;52.052;8.354;2023-11-21T02:04:13;100067.00;;;12.70
16956;BMP180;8594;52.052;8.354;2023-11-21T02:06:41;100074.00;;;12.60
16956;BMP180;8594;52.052;8.354;2023-11-21T02:09:10;100069.00;;;12.60
16956;BMP180;8594;52.052;8.354;2023-11-21T02:11:40;100075.00;;;12.50
16956;BMP180;8594;52.052;8.354;2023-11-21T02:14:08;100077.00;;;12.70
16956;BMP180;8594;52.052;8.354;2023-11-21T02:16:35;100089.00;;;12.50
16956;BMP180;8594;52.052;8.354;2023-11-21T02:19:07;100087.00;;;12.50
16956;BMP180;8594;52.052;8.354;2023-11-21T02:21:35;100091.00;;;12.70
16956;BMP180;8594;52.052;8.354;2023-11-21T02:24:08;100095.00;;;12.70
16956;BMP180;8594;52.052;8.354;2023-11-21T02:26:35;100095.00;;;12.70
16956;BMP180;8594;52.052;8.354;2023-11-21T02:29:02;100104.00;;;12.60
16956;BMP180;8594;52.052;8.354;2023-11-21T02:31:30;100107.00;;;12.50
16956;BMP180;8594;52.052;8.354;2023-11-21T02:33:58;100103.00;;;12.40
16956;BMP180;8594;52.052;8.354;2023-11-21T02:36:25;100105.00;;;12.60
16956;BMP180;8594;52.052;8.354;2023-11-21T02:38:52;100115.00;;;12.60
16956;BMP180;8594;52.052;8.354;2023-11-21T02:41:20;100113.00;;;12.70
16956;BMP180;8594;52.052;8.354;2023-11-21T02:43:46;100109.00;;;12.60
16956;BMP180;8594;52.052;8.354;2023-11-21T02:46:13;100114.00;;;12.60
16956;BMP180;8594;52.052;8.354;2023-11-21T02:48:40;100116.00;;;12.70
16956;BMP180;8594;52.052;8.354;2023-11-21T02:51:07;100113.00;;;12.70
16956;BMP180;8594;52.052;8.354;2023-11-21T02:53:34;100117.00;;;12.80
16956;BMP180;8594;52.052;8.354;2023-11-21T02:56:00;100114.00;;;12.60
16956;BMP180;8594;52.052;8.354;2023-11-21T02:58:29;100118.00;;;12.80
16956;BMP180;8594;52.052;8.354;2023-11-21T03:00:56;100108.00;;;12.70
16956;BMP180;8594;52.052;8.354;2023-11-21T03:03:23;100120.00;;;12.70
16956;BMP180;8594;52.052;8.354;2023-11-21T03:05:51;100118.00;;;12.80
16956;BMP180;8594;52.052;8.354;2023-11-21T03:08:17;100126.00;;;12.90
16956;BMP180;8594;52.052;8.354;2023-11-21T03:10:44;100128.00;;;12.70
16956;BMP180;8594;52.052;8.354;2023-11-21T03:13:11;100132.00;;;12.60
16956;BMP180;8594;52.052;8.354;2023-11-21T03:15:39;100122.00;;;12.50
16956;BMP180;8594;52.052;8.354;2023-11-21T03:18:06;100119.00;;;12.70
16956;BMP180;8594;52.052;8.354;2023-11-21T03:20:33;100119.00;;;12.50
16956;BMP180;8594;52.052;8.354;2023-11-21T03:23:01;100127.00;;;12.70
16956;BMP180;8594;52.052;8.354;2023-11-21T03:25:29;100129.00;;;12.70
16956;BMP180;8594;52.052;8.354;2023-11-21T03:27:56;100139.00;;;12.90
16956;BMP180;8594;52.052;8.354;2023-11-21T03:30:23;100140.00;;;12.70
16956;BMP180;8594;52.052;8.354;2023-11-21T03:32:52;100135.00;;;12.80
16956;BMP180;8594;52.052;8.354;2023-11-21T03:35:19;100137.00;;;12.80
16956;BMP180;8594;52.052;8.354;2023-11-21T03:37:46;100144.00;;;12.70
16956;BMP180;8594;52.052;8.354;2023-11-21T03:40:13;100140.00;;;12.90
16956;BMP180;8594;52.052;8.354;2023-11-21T03:42:40;100147.00;;;12.60
16956;BMP180;8594;52.052;8.354;2023-11-21T03:45:09;100152.00;;;12.50
16956;BMP180;8594;52.052;8.354;2023-11-21T03:47:37;100148.00;;;12.30
16956;BMP180;8594;52.052;8.354;2023-11-21T03:50:07;100147.00;;;12.50
16956;BMP180;8594;52.052;8.354;2023-11-21T03:52:34;100154.00;;;12.60
16956;BMP180;8594;52.052;8.354;2023-11-21T03:55:02;100158.00;;;12.60
16956;BMP180;8594;52.052;8.354;2023-11-21T03:57:29;100162.00;;;12.40
16956;BMP180;8594;52.052;8.354;2023-11-21T03:59:56;100164.00;;;12.50
16956;BMP180;8594;52.052;8.354;2023-11-21T04:02:23;100171.00;;;12.50
16956;BMP180;8594;52.052;8.354;2023-11-21T04:04:51;100165.00;;;12.50
16956;BMP180;8594;52.052;8.354;2023-11-21T04:07:19;100170.00;;;12.40
16956;BMP180;8594;52.052;8.354;2023-11-21T04:09:47;100168.00;;;12.40
16956;BMP180;8594;52.052;8.354;2023-11-21T04:12:14;100178.00;;;12.50
16956;BMP180;8594;52.052;8.354;2023-11-21T04:14:41;100176.00;;;12.40
16956;BMP180;8594;52.052;8.354;2023-11-21T04:17:07;100191.00;;;12.50
16956;BMP180;8594;52.052;8.354;2023-11-21T04:19:35;100206.00;;;12.40
16956;BMP180;8594;52.052;8.354;2023-11-21T04:22:02;100210.00;;;12.50
16956;BMP180;8594;52.052;8.354;2023-11-21T04:24:31;100200.00;;;12.50
16956;BMP180;8594;52.052;8.354;2023-11-21T04:26:57;100198.00;;;12.30
16956;BMP180;8594;52.052;8.354;2023-11-21T04:29:24;100201.00;;;12.30
16956;BMP180;8594;52.052;8.354;2023-11-21T04:31:51;100208.00;;;12.40
16956;BMP180;8594;52.052;8.354;2023-11-21T04:34:18;100201.00;;;12.30
16956;BMP180;8594;52.052;8.354;2023-11-21T04:36:45;100204.00;;;12.40
16956;BMP180;8594;52.052;8.354;2023-11-21T04:39:12;100205.00;;;12.30
16956;BMP180;8594;52.052;8.354;2023-11-21T04:41:40;100209.00;;;12.40
16956;BMP180;8594;52.052;8.354;2023-11-21T04:44:08;100204.00;;;12.40
16956;BMP180;8594;52.052;8.354;2023-11-21T04:46:34;100217.00;;;12.50
16956;BMP180;8594;52.052;8.354;2023-11-21T04:49:01;100209.00;;;12.40
16956;BMP180;8594;52.052;8.354;2023-11-21T04:51:28;100212.00;;;12.30
16956;BMP180;8594;52.052;8.354;2023-11-21T04:53:55;100203.00;;;12.10
16956;BMP180;8594;52.052;8.354;2023-11-21T04:56:22;100198.00;;;12.10
16956;BMP180;8594;52.052;8.354;2023-11-21T04:58:50;100210.00;;;12.10
16956;BMP180;8594;52.052;8.354;2023-11-21T05:01:17;100209.00;;;12.40
16956;BMP180;8594;52.052;8.354;2023-11-21T05:03:44;100207.00;;;12.30
16956;BMP180;8594;52.052;8.354;2023-11-21T05:06:12;100208.00;;;12.60
16956;BMP180;8594;52.052;8.354;2023-11-21T05:08:39;100218.00;;;12.40
16956;BMP180;8594;52.052;8.354;2023-11-21T05:11:06;100205.00;;;12.30
16956;BMP180;8594;52.052;8.354;2023-11-21T05:13:36;100224.00;;;12.50
16956;BMP180;8594;52.052;8.354;2023-11-21T05:16:06;100221.00;;;12.40
16956;BMP180;8594;52.052;8.354;2023-11-21T05:18:33;100216.00;;;12.30
16956;BMP180;8594;52.052;8.354;2023-11-21T05:21:00;100214.00;;;12.40
16956;BMP180;8594;52.052;8.354;2023-11-21T05:23:27;100224.00;;;12.60
16956;BMP180;8594;52.052;8.354;2023-11-21T05:25:54;100226.00;;;12.50
16956;BMP180;8594;52.052;8.354;2023-11-21T05:28:22;100227.00;;;12.70
16956;BMP180;8594;52.052;8.354;2023-11-21T05:30:48;100224.00;;;12.50
16956;BMP180;8594;52.052;8.354;2023-11-21T05:33:17;100222.00;;;12.50
16956;BMP180;8594;52.052;8.354;2023-11-21T05:35:44;100223.00;;;12.50
16956;BMP180;8594;52.052;8.354;2023-11-21T05:38:11;100224.00;;;12.40
16956;BMP180;8594;52.052;8.354;2023-11-21T05:40:38;100226.00;;;12.30
16956;BMP180;8594;52.052;8.354;2023-11-21T05:43:04;100227.00;;;12.70
16956;BMP180;8594;52.052;8.354;2023-11-21T05:45:31;100231.00;;;12.50
16956;BMP180;8594;52.052;8.354;2023-11-21T05:47:59;100234.00;;;12.60
16956;BMP180;8594;52.052;8.354;2023-11-21T05:50:27;100227.00;;;12.40
16956;BMP180;8594;52.052;8.354;2023-11-21T05:52:54;100239.00;;;12.50
16956;BMP180;8594;52.052;8.354;2023-11-21T05:55:22;100247.00;;;12.60
16956;BMP180;8594;52.052;8.354;2023-11-21T05:57:51;100245.00;;;12.50
16956;BMP180;8594;52.052;8.354;2023-11-21T06:00:20;100255.00;;;12.60
16956;BMP180;8594;52.052;8.354;2023-11-21T06:02:48;100257.00;;;12.50
16956;BMP180;8594;52.052;8.354;2023-11-21T06:05:17;100258.00;;;12.40
16956;BMP180;8594;52.052;8.354;2023-11-21T06:07:46;100261.00;;;12.40
16956;BMP180;8594;52.052;8.354;2023-11-21T06:10:13;100273.00;;;12.30
16956;BMP180;8594;52.052;8.354;2023-11-21T06:12:40;100274.00;;;12.30
16956;BMP180;8594;52.052;8.354;2023-11-21T06:15:10;100281.00;;;12.10
16956;BMP180;8594;52.052;8.354;2023-11-21T06:17:39;100282.00;;;12.10
16956;BMP180;8594;52.052;8.354;2023-11-21T06:20:08;100281.00;;;12.00
16956;BMP180;8594;52.052;8.354;2023-11-21T06:22:36;100292.00;;;12.20
16956;BMP180;8594;52.052;8.354;2023-11-21T06:25:06;100292.00;;;12.20
16956;BMP180;8594;52.052;8.354;2023-11-21T06:27:33;100293.00;;;12.20
16956;BMP180;8594;52.052;8.354;2023-11-21T06:30:02;100302.00;;;12.20
16956;BMP180;8594;52.052;8.354;2023-11-21T06:32:29;100307.00;;;12.30
16956;BMP180;8594;52.052;8.354;2023-11-21T06:34:56;100309.00;;;12.30
16956;BMP180;8594;52.052;8.354;2023-11-21T06:37:25;100310.00;;;12.40
16956;BMP180;8594;52.052;8.354;2023-11-21T06:39:52;100314.00;;;12.30
16956;BMP180;8594;52.052;8.354;2023-11-21T06:42:20;100325.00;;;12.30
16956;BMP180;8594;52.052;8.354;2023-11-21T06:44:48;100320.00;;;12.30
16956;BMP180;8594;52.052;8.354;2023-11-21T06:47:14;100330.00;;;12.40
16956;BMP180;8594;52.052;8.354;2023-11-21T06:49:43;100321.00;;;12.50
16956;BMP180;8594;52.052;8.354;2023-11-21T06:52:10;100326.00;;;12.30
16956;BMP180;8594;52.052;8.354;2023-11-21T06:54:37;100340.00;;;12.10
16956;BMP180;8594;52.052;8.354;2023-11-21T06:57:04;100347.00;;;12.20
16956;BMP180;8594;52.052;8.354;2023-11-21T06:59:32;100353.00;;;12.40
16956;BMP180;8594;52.052;8.354;2023-11-21T07:01:59;100347.00;;;12.10
16956;BMP180;8594;52.052;8.354;2023-11-21T07:04:25;100356.00;;;12.10
16956;BMP180;8594;52.052;8.354;2023-11-21T07:06:53;100362.00;;;12.30
16956;BMP180;8594;52.052;8.354;2023-11-21T07:09:20;100366.00;;;11.90
16956;BMP180;8594;52.052;8.354;2023-11-21T07:11:49;100365.00;;;12.20
16956;BMP180;8594;52.052;8.354;2023-11-21T07:14:16;100364.00;;;12.20
16956;BMP180;8594;52.052;8.354;2023-11-21T07:16:46;100370.00;;;12.00
16956;BMP180;8594;52.052;8.354;2023-11-21T07:19:13;100369.00;;;12.30
16956;BMP180;8594;52.052;8.354;2023-11-21T07:21:40;100374.00;;;12.30
16956;BMP180;8594;52.052;8.354;2023-11-21T07:24:08;100384.00;;;12.30
16956;BMP180;8594;52.052;8.354;2023-11-21T07:26:36;100387.00;;;12.30
16956;BMP180;8594;52.052;8.354;2023-11-21T07:29:04;100382.00;;;12.30
16956;BMP180;8594;52.052;8.354;2023-11-21T07:31:31;100392.00;;;12.30
16956;BMP180;8594;52.052;8.354;2023-11-21T07:34:01;100394.00;;;12.30
16956;BMP180;8594;52.052;8.354;2023-11-21T07:36:28;100398.00;;;11.90
16956;BMP180;8594;52.052;8.354;2023-11-21T07:38:55;100410.00;;;12.20
16956;BMP180;8594;52.052;8.354;2023-11-21T07:41:22;100408.00;;;12.10
16956;BMP180;8594;52.052;8.354;2023-11-21T07:43:49;100417.00;;;12.10
16956;BMP180;8594;52.052;8.354;2023-11-21T07:46:15;100409.00;;;12.30
16956;BMP180;8594;52.052;8.354;2023-11-21T07:48:43;100413.00;;;12.10
16956;BMP180;8594;52.052;8.354;2023-11-21T07:51:13;100414.00;;;12.10
16956;BMP180;8594;52.052;8.354;2023-11-21T07:53:40;100409.00;;;12.10
16956;BMP180;8594;52.052;8.354;2023-11-21T07:56:08;100405.00;;;12.40
16956;BMP180;8594;52.052;8.354;2023-11-21T07:58:36;100406.00;;;12.30
16956;BMP180;8594;52.052;8.354;2023-11-21T08:01:03;100412.00;;;12.50
16956;BMP180;8594;52.052;8.354;2023-11-21T08:03:30;100417.00;;;12.30
16956;BMP180;8594;52.052;8.354;2023-11-21T08:05:58;100409.00;;;12.30
16956;BMP180;8594;52.052;8.354;2023-11-21T08:08:26;100416.00;;;12.30
16956;BMP180;8594;52.052;8.354;2023-11-21T08:10:53;100417.00;;;12.30
16956;BMP180;8594;52.052;8.354;2023-11-21T08:13:23;100425.00;;;12.40
16956;BMP180;8594;52.052;8.354;2023-11-21T08:15:50;100437.00;;;12.50
16956;BMP180;8594;52.052;8.354;2023-11-21T08:18:17;100429.00;;;12.40
16956;BMP180;8594;52.052;8.354;2023-11-21T08:20:44;100428.00;;;12.50
16956;BMP180;8594;52.052;8.354;2023-11-21T08:23:14;100427.00;;;12.10
16956;BMP180;8594;52.052;8.354;2023-11-21T08:25:43;100440.00;;;12.40
16956;BMP180;8594;52.052;8.354;2023-11-21T08:28:10;100451.00;;;12.50
16956;BMP180;8594;52.052;8.354;2023-11-21T08:30:37;100452.00;;;12.40
16956;BMP180;8594;52.052;8.354;2023-11-21T08:33:05;100449.00;;;12.70
16956;BMP180;8594;52.052;8.354;2023-11-21T08:35:32;100460.00;;;12.20
16956;BMP180;8594;52.052;8.354;2023-11-21T08:37:59;100462.00;;;12.20
16956;BMP180;8594;52.052;8.354;2023-11-21T08:40:26;100469.00;;;12.00
16956;BMP180;8594;52.052;8.354;2023-11-21T08:42:54;100466.00;;;11.70
16956;BMP180;8594;52.052;8.354;2023-11-21T08:45:21;100476.00;;;12.20
16956;BMP180;8594;52.052;8.354;2023-11-21T08:47:48;100473.00;;;11.90
16956;BMP180;8594;52.052;8.354;2023-11-21T08:50:16;100475.00;;;12.30
16956;BMP180;8594;52.052;8.354;2023-11-21T08:52:44;100481.00;;;12.30
16956;BMP180;8594;52.052;8.354;2023-11-21T08:55:12;100486.00;;;12.00
16956;BMP180;8594;52.052;8.354;2023-11-21T08:57:40;100489.00;;;12.00
16956;BMP180;8594;52.052;8.354;2023-11-21T09:00:10;100504.00;;;12.20
16956;BMP180;8594;52.052;8.354;2023-11-21T09:02:39;100502.00;;;12.40
16956;BMP180;8594;52.052;8.354;2023-11-21T09:05:08;100498.00;;;12.40
16956;BMP180;8594;52.052;8.354;2023-11-21T09:07:36;100502.00;;;12.50
16956;BMP180;8594;52.052;8.354;2023-11-21T09:10:03;100501.00;;;11.90
16956;BMP180;8594;52.052;8.354;2023-11-21T09:12:33;100502.00;;;11.90
16956;BMP180;8594;52.052;8.354;2023-11-21T09:15:00;100508.00;;;11.80
16956;BMP180;8594;52.052;8.354;2023-11-21T09:17:28;100506.00;;;12.10
16956;BMP180;8594;52.052;8.354;2023-11-21T09:19:55;100507.00;;;12.00
16956;BMP180;8594;52.052;8.354;2023-11-21T09:22:22;100511.00;;;12.40
16956;BMP180;8594;52.052;8.354;2023-11-21T09:24:50;100520.00;;;12.50
16956;BMP180;8594;52.052;8.354;2023-11-21T09:27:18;100522.00;;;12.30
16956;BMP180;8594;52.052;8.354;2023-11-21T09:29:45;100529.00;;;12.10
16956;BMP180;8594;52.052;8.354;2023-11-21T09:32:14;100524.00;;;12.10
16956;BMP180;8594;52.052;8.354;2023-11-21T09:34:45;100538.00;;;12.30
16956;BMP180;8594;52.052;8.354;2023-11-21T09:37:12;100540.00;;;12.40
16956;BMP180;8594;52.052;8.354;2023-11-21T09:39:39;100539.00;;;12.20
16956;BMP180;8594;52.052;8.354;2023-11-21T09:42:11;100544.00;;;12.40
16956;BMP180;8594;52.052;8.354;2023-11-21T09:44:48;100558.00;;;12.50
16956;BMP180;8594;52.052;8.354;2023-11-21T09:47:20;100557.00;;;12.20
16956;BMP180;8594;52.052;8.354;2023-11-21T09:49:49;100556.00;;;12.40
16956;BMP180;8594;52.052;8.354;2023-11-21T09:52:25;100562.00;;;12.20
16956;BMP180;8594;52.052;8.354;2023-11-21T09:54:53;100558.00;;;12.10
16956;BMP180;8594;52.052;8.354;2023-11-21T09:57:24;100566.00;;;12.30
16956;BMP180;8594;52.052;8.354;2023-11-21T09:59:52;100570.00;;;12.30
16956;BMP180;8594;52.052;8.354;2023-11-21T10:02:24;100567.00;;;12.70
16956;BMP180;8594;52.052;8.354;2023-11-21T10:04:55;100564.00;;;12.30
16956;BMP180;8594;52.052;8.354;2023-11-21T10:07:23;100575.00;;;12.10
16956;BMP180;8594;52.052;8.354;2023-11-21T10:09:52;100572.00;;;11.90
16956;BMP180;8594;52.052;8.354;2023-11-21T10:12:20;100581.00;;;12.20
16956;BMP180;8594;52.052;8.354;2023-11-21T10:14:48;100589.00;;;12.30
16956;BMP180;8594;52.052;8.354;2023-11-21T10:17:18;100590.00;;;12.40
16956;BMP180;8594;52.052;8.354;2023-11-21T10:19:47;100592.00;;;12.60
16956;BMP180;8594;52.052;8.354;2023-11-21T10:22:15;100596.00;;;12.30
16956;BMP180;8594;52.052;8.354;2023-11-21T10:24:43;100597.00;;;12.10
16956;BMP180;8594;52.052;8.354;2023-11-21T10:27:10;100604.00;;;12.10
16956;BMP180;8594;52.052;8.354;2023-11-21T10:29:36;100605.00;;;12.20
16956;BMP180;8594;52.052;8.354;2023-11-21T10:32:04;100593.00;;;12.00
16956;BMP180;8594;52.052;8.354;2023-11-21T10:34:31;100593.00;;;12.20
16956;BMP180;8594;52.052;8.354;2023-11-21T10:37:11;100586.00;;;11.70
16956;BMP180;8594;52.052;8.354;2023-11-21T10:39:40;100590.00;;;11.40
16956;BMP180;8594;52.052;8.354;2023-11-21T10:42:09;100601.00;;;11.80
16956;BMP180;8594;52.052;8.354;2023-11-21T10:44:36;100597.00;;;11.60
16956;BMP180;8594;52.052;8.354;2023-11-21T10:47:03;100602.00;;;11.70
16956;BMP180;8594;52.052;8.354;2023-11-21T10:49:30;100604.00;;;12.10
16956;BMP180;8594;52.052;8.354;2023-11-21T10:51:57;100611.00;;;12.00
16956;BMP180;8594;52.052;8.354;2023-11-21T10:54:25;100602.00;;;11.80
16956;BMP180;8594;52.052;8.354;2023-11-21T10:56:58;100609.00;;;11.50
16956;BMP180;8594;52.052;8.354;2023-11-21T10:59:29;100613.00;;;11.60
16956;BMP180;8594;52.052;8.354;2023-11-21T11:01:58;100620.00;;;11.60
16956;BMP180;8594;52.052;8.354;2023-11-21T11:04:28;100621.00;;;10.90
16956;BMP180;8594;52.052;8.354;2023-11-21T11:06:57;100635.00;;;10.50
16956;BMP180;8594;52.052;8.354;2023-11-21T11:09:30;100642.00;;;10.80
16956;BMP180;8594;52.052;8.354;2023-11-21T11:11:59;100641.00;;;11.30
16956;BMP180;8594;52.052;8.354;2023-11-21T11:14:28;100646.00;;;10.90
16956;BMP180;8594;52.052;8.354;2023-11-21T11:16:55;100652.00;;;11.50
16956;BMP180;8594;52.052;8.354;2023-11-21T11:19:22;100652.00;;;11.20
16956;BMP180;8594;52.052;8.354;2023-11-21T11:22:00;100657.00;;;11.30
16956;BMP180;8594;52.052;8.354;2023-11-21T11:24:52;100656.00;;;11.30
16956;BMP180;8594;52.052;8.354;2023-11-21T11:27:33;100658.00;;;11.10
16956;BMP180;8594;52.052;8.354;2023-11-21T11:30:20;100655.00;;;10.70
16956;BMP180;8594;52.052;8.354;2023-11-21T11:33:03;100659.00;;;11.10
16956;BMP180;8594;52.052;8.354;2023-11-21T11:35:46;100658.00;;;11.30
16956;BMP180;8594;52.052;8.354;2023-11-21T11:38:15;100660.00;;;10.60
16956;BMP180;8594;52.052;8.354;2023-11-21T11:40:46;100664.00;;;11.30
16956;BMP180;8594;52.052;8.354;2023-11-21T11:43:25;100675.00;;;10.70
16956;BMP180;8594;52.052;8.354;2023-11-21T11:45:55;100666.00;;;10.70
16956;BMP180;8594;52.052;8.354;2023-11-21T11:48:23;100680.00;;;10.90
16956;BMP180;8594;52.052;8.354;2023-11-21T11:51:07;100672.00;;;11.20
16956;BMP180;8594;52.052;8.354;2023-11-21T11:53:39;100655.00;;;10.60
16956;BMP180;8594;52.052;8.354;2023-11-21T11:56:27;100662.00;;;10.60
16956;BMP180;8594;52.052;8.354;2023-11-21T11:59:00;100676.00;;;10.60
16956;BMP180;8594;52.052;8.354;2023-11-21T12:01:29;100673.00;;;10.80
16956;BMP180;8594;52.052;8.354;2023-11-21T12:04:24;100693.00;;;11.00
16956;BMP180;8594;52.052;8.354;2023-11-21T12:07:00;100690.00;;;10.70
16956;BMP180;8594;52.052;8.354;2023-11-21T12:09:29;100700.00;;;10.80
16956;BMP180;8594;52.052;8.354;2023-11-21T12:11:57;100695.00;;;10.40
16956;BMP180;8594;52.052;8.354;2023-11-21T12:14:26;100711.00;;;10.60
16956;BMP180;8594;52.052;8.354;2023-11-21T12:16:53;100710.00;;;10.10
16956;BMP180;8594;52.052;8.354;2023-11-21T12:19:20;100709.00;;;10.60
16956;BMP180;8594;52.052;8.354;2023-11-21T12:21:49;100718.00;;;10.40
16956;BMP180;8594;52.052;8.354;2023-11-21T12:24:16;100727.00;;;10.30
16956;BMP180;8594;52.052;8.354;2023-11-21T12:26:43;100715.00;;;10.70
16956;BMP180;8594;52.052;8.354;2023-11-21T12:29:11;100726.00;;;10.30
16956;BMP180;8594;52.052;8.354;2023-11-21T12:31:39;100731.00;;;10.30
16956;BMP180;8594;52.052;8.354;2023-11-21T12:34:07;100722.00;;;10.10
16956;BMP180;8594;52.052;8.354;2023-11-21T12:36:37;100722.00;;;10.30
16956;BMP180;8594;52.052;8.354;2023-11-21T12:39:04;100725.00;;;10.50
16956;BMP180;8594;52.052;8.354;2023-11-21T12:41:34;100736.00;;;10.60
16956;BMP180;8594;52.052;8.354;2023-11-21T12:44:01;100737.00;;;10.20
16956;BMP180;8594;52.052;8.354;2023-11-21T12:46:29;100728.00;;;9.60
16956;BMP180;8594;52.052;8.354;2023-11-21T12:49:00;100731.00;;;9.90
16956;BMP180;8594;52.052;8.354;2023-11-21T12:51:27;100732.00;;;9.90
16956;BMP180;8594;52.052;8.354;2023-11-21T12:53:55;100737.00;;;9.70
16956;BMP180;8594;52.052;8.354;2023-11-21T12:56:22;100748.00;;;9.70
16956;BMP180;8594;52.052;8.354;2023-11-21T12:58:50;100749.00;;;9.90
16956;BMP180;8594;52.052;8.354;2023-11-21T13:01:26;100740.00;;;10.00
16956;BMP180;8594;52.052;8.354;2023-11-21T13:03:57;100751.00;;;9.90
16956;BMP180;8594;52.052;8.354;2023-11-21T13:06:25;100752.00;;;9.90
16956;BMP180;8594;52.052;8.354;2023-11-21T13:08:52;100759.00;;;9.80
16956;BMP180;8594;52.052;8.354;2023-11-21T13:11:20;100761.00;;;10.00
16956;BMP180;8594;52.052;8.354;2023-11-21T13:13:51;100768.00;;;10.00
16956;BMP180;8594;52.052;8.354;2023-11-21T13:16:18;100768.00;;;10.10
16956;BMP180;8594;52.052;8.354;2023-11-21T13:18:46;100775.00;;;10.40
16956;BMP180;8594;52.052;8.354;2023-11-21T13:21:13;100772.00;;;10.50
16956;BMP180;8594;52.052;8.354;2023-11-21T13:23:43;100775.00;;;10.50
16956;BMP180;8594;52.052;8.354;2023-11-21T13:26:11;100783.00;;;10.70
16956;BMP180;8594;52.052;8.354;2023-11-21T13:28:40;100783.00;;;10.20
16956;BMP180;8594;52.052;8.354;2023-11-21T13:31:12;100790.00;;;10.50
16956;BMP180;8594;52.052;8.354;2023-11-21T13:33:52;100790.00;;;10.20
16956;BMP180;8594;52.052;8.354;2023-11-21T13:36:22;100797.00;;;10.70
16956;BMP180;8594;52.052;8.354;2023-11-21T13:38:51;100802.00;;;10.70
16956;BMP180;8594;52.052;8.354;2023-11-21T13:41:19;100805.00;;;10.80
16956;BMP180;8594;52.052;8.354;2023-11-21T13:43:48;100812.00;;;10.40
16956;BMP180;8594;52.052;8.354;2023-11-21T13:46:22;100821.00;;;10.70
16956;BMP180;8594;52.052;8.354;2023-11-21T13:48:50;100822.00;;;11.00
16956;BMP180;8594;52.052;8.354;2023-11-21T13:51:20;100829.00;;;11.00
16956;BMP180;8594;52.052;8.354;2023-11-21T13:53:57;100836.00;;;11.10
16956;BMP180;8594;52.052;8.354;2023-11-21T13:56:24;100839.00;;;10.80
16956;BMP180;8594;52.052;8.354;2023-11-21T13:58:54;100836.00;;;10.20
16956;BMP180;8594;52.052;8.354;2023-11-21T14:01:23;100835.00;;;10.60
16956;BMP180;8594;52.052;8.354;2023-11-21T14:04:10;100844.00;;;10.80
16956;BMP180;8594;52.052;8.354;2023-11-21T14:06:46;100844.00;;;10.70
16956;BMP180;8594;52.052;8.354;2023-11-21T14:09:17;100852.00;;;11.00
16956;BMP180;8594;52.052;8.354;2023-11-21T14:11:51;100851.00;;;10.70
16956;BMP180;8594;52.052;8.354;2023-11-21T14:14:20;100846.00;;;10.60
16956;BMP180;8594;52.052;8.354;2023-11-21T14:16:48;100852.00;;;10.60